sensor_id;sensor_type;location;lat;lon;timestamp;P1;durP1;ratioP1;P2;durP2;ratioP2
76548;SDS011;65391;52.068;4.542;2022-12-18T00:02:02;23;;;16.3;;
76548;SDS011;65391;52.068;4.542;2022-12-18T00:04:27;23;;;16.3;;
76548;SDS011;65391;52.068;4.542;2022-12-18T00:06:52;23;;;16.3;;
76548;SDS011;65391;52.068;4.542;2022-12-18T00:09:17;23;;;16.3;;
76548;SDS011;65391;52.068;4.542;2022-12-18T00:11:42;24.6;;;17.6;;
76548;SDS011;65391;52.068;4.542;2022-12-18T00:14:09;24.6;;;17.6;;
76548;SDS011;65391;52.068;4.542;2022-12-18T00:16:32;24.6;;;17.6;;
76548;SDS011;65391;52.068;4.542;2022-12-18T00:18:58;24.6;;;17.6;;
76548;SDS011;65391;52.068;4.542;2022-12-18T00:21:22;27.5;;;20.3;;
76548;SDS011;65391;52.068;4.542;2022-12-18T00:23:47;27.5;;;20.3;;
76548;SDS011;65391;52.068;4.542;2022-12-18T00:26:16;27.5;;;20.3;;
76548;SDS011;65391;52.068;4.542;2022-12-18T00:28:37;27.5;;;20.3;;
76548;SDS011;65391;52.068;4.542;2022-12-18T00:31:02;31.9;;;19.7;;
76548;SDS011;65391;52.068;4.542;2022-12-18T00:33:27;31.9;;;19.7;;
76548;SDS011;65391;52.068;4.542;2022-12-18T00:35:52;31.9;;;19.7;;
76548;SDS011;65391;52.068;4.542;2022-12-18T00:38:17;31.9;;;19.7;;
76548;SDS011;65391;52.068;4.542;2022-12-18T00:40:42;25;;;15.7;;
76548;SDS011;65391;52.068;4.542;2022-12-18T00:43:08;25;;;15.7;;
76548;SDS011;65391;52.068;4.542;2022-12-18T00:45:32;25;;;15.7;;
76548;SDS011;65391;52.068;4.542;2022-12-18T00:47:57;25;;;15.7;;
76548;SDS011;65391;52.068;4.542;2022-12-18T00:50:23;30.5;;;18.6;;
76548;SDS011;65391;52.068;4.542;2022-12-18T00:52:47;30.5;;;18.6;;
76548;SDS011;65391;52.068;4.542;2022-12-18T00:55:12;30.5;;;18.6;;
76548;SDS011;65391;52.068;4.542;2022-12-18T00:57:37;30.5;;;18.6;;
76548;SDS011;65391;52.068;4.542;2022-12-18T01:00:03;28.4;;;19.9;;
76548;SDS011;65391;52.068;4.542;2022-12-18T01:02:27;28.4;;;19.9;;
76548;SDS011;65391;52.068;4.542;2022-12-18T01:04:52;28.4;;;19.9;;
76548;SDS011;65391;52.068;4.542;2022-12-18T01:07:17;28.4;;;19.9;;
76548;SDS011;65391;52.068;4.542;2022-12-18T01:09:42;42.6;;;19;;
76548;SDS011;65391;52.068;4.542;2022-12-18T01:12:07;42.6;;;19;;
76548;SDS011;65391;52.068;4.542;2022-12-18T01:14:32;42.6;;;19;;
76548;SDS011;65391;52.068;4.542;2022-12-18T01:16:57;42.6;;;19;;
76548;SDS011;65391;52.068;4.542;2022-12-18T01:19:22;42.6;;;19;;
76548;SDS011;65391;52.068;4.542;2022-12-18T01:21:47;42.2;;;18.3;;
76548;SDS011;65391;52.068;4.542;2022-12-18T01:24:12;42.2;;;18.3;;
76548;SDS011;65391;52.068;4.542;2022-12-18T01:26:37;42.2;;;18.3;;
76548;SDS011;65391;52.068;4.542;2022-12-18T01:29:02;42.2;;;18.3;;
76548;SDS011;65391;52.068;4.542;2022-12-18T01:31:28;43.9;;;19.3;;
76548;SDS011;65391;52.068;4.542;2022-12-18T01:33:52;43.9;;;19.3;;
76548;SDS011;65391;52.068;4.542;2022-12-18T01:36:18;43.9;;;19.3;;
76548;SDS011;65391;52.068;4.542;2022-12-18T01:38:42;43.9;;;19.3;;
76548;SDS011;65391;52.068;4.542;2022-12-18T01:41:07;37.1;;;17;;
76548;SDS011;65391;52.068;4.542;2022-12-18T01:43:50;37.1;;;17;;
76548;SDS011;65391;52.068;4.542;2022-12-18T01:45:59;37.1;;;17;;
76548;SDS011;65391;52.068;4.542;2022-12-18T01:48:22;37.1;;;17;;
76548;SDS011;65391;52.068;4.542;2022-12-18T01:50:47;34.3;;;17.8;;
76548;SDS011;65391;52.068;4.542;2022-12-18T01:53:14;34.3;;;17.8;;
76548;SDS011;65391;52.068;4.542;2022-12-18T01:55:39;34.3;;;17.8;;
76548;SDS011;65391;52.068;4.542;2022-12-18T01:58:02;34.3;;;17.8;;
76548;SDS011;65391;52.068;4.542;2022-12-18T02:00:27;29.5;;;16.2;;
76548;SDS011;65391;52.068;4.542;2022-12-18T02:02:53;29.5;;;16.2;;
76548;SDS011;65391;52.068;4.542;2022-12-18T02:05:19;29.5;;;16.2;;
76548;SDS011;65391;52.068;4.542;2022-12-18T02:07:44;29.5;;;16.2;;
76548;SDS011;65391;52.068;4.542;2022-12-18T02:10:13;27.7;;;15;;
76548;SDS011;65391;52.068;4.542;2022-12-18T02:12:35;27.7;;;15;;
76548;SDS011;65391;52.068;4.542;2022-12-18T02:14:59;27.7;;;15;;
76548;SDS011;65391;52.068;4.542;2022-12-18T02:17:23;27.7;;;15;;
76548;SDS011;65391;52.068;4.542;2022-12-18T02:19:55;24.3;;;11.8;;
76548;SDS011;65391;52.068;4.542;2022-12-18T02:22:20;24.3;;;11.8;;
76548;SDS011;65391;52.068;4.542;2022-12-18T02:24:41;24.3;;;11.8;;
76548;SDS011;65391;52.068;4.542;2022-12-18T02:27:03;24.3;;;11.8;;
76548;SDS011;65391;52.068;4.542;2022-12-18T02:29:29;24.3;;;11.8;;
76548;SDS011;65391;52.068;4.542;2022-12-18T02:31:53;25;;;15.3;;
76548;SDS011;65391;52.068;4.542;2022-12-18T02:34:17;25;;;15.3;;
76548;SDS011;65391;52.068;4.542;2022-12-18T02:36:42;25;;;15.3;;
76548;SDS011;65391;52.068;4.542;2022-12-18T02:39:08;25;;;15.3;;
76548;SDS011;65391;52.068;4.542;2022-12-18T02:41:32;27.2;;;14.3;;
76548;SDS011;65391;52.068;4.542;2022-12-18T02:44:06;27.2;;;14.3;;
76548;SDS011;65391;52.068;4.542;2022-12-18T02:46:27;27.2;;;14.3;;
76548;SDS011;65391;52.068;4.542;2022-12-18T02:48:47;27.2;;;14.3;;
76548;SDS011;65391;52.068;4.542;2022-12-18T02:51:16;29.9;;;15.9;;
76548;SDS011;65391;52.068;4.542;2022-12-18T02:53:39;29.9;;;15.9;;
76548;SDS011;65391;52.068;4.542;2022-12-18T02:56:05;29.9;;;15.9;;
76548;SDS011;65391;52.068;4.542;2022-12-18T02:58:30;29.9;;;15.9;;
76548;SDS011;65391;52.068;4.542;2022-12-18T03:00:54;26.1;;;14.2;;
76548;SDS011;65391;52.068;4.542;2022-12-18T03:03:19;26.1;;;14.2;;
76548;SDS011;65391;52.068;4.542;2022-12-18T03:05:44;26.1;;;14.2;;
76548;SDS011;65391;52.068;4.542;2022-12-18T03:08:08;26.1;;;14.2;;
76548;SDS011;65391;52.068;4.542;2022-12-18T03:10:34;29.9;;;15.5;;
76548;SDS011;65391;52.068;4.542;2022-12-18T03:13:00;29.9;;;15.5;;
76548;SDS011;65391;52.068;4.542;2022-12-18T03:15:23;29.9;;;15.5;;
76548;SDS011;65391;52.068;4.542;2022-12-18T03:17:50;29.9;;;15.5;;
76548;SDS011;65391;52.068;4.542;2022-12-18T03:20:14;22.7;;;15.7;;
76548;SDS011;65391;52.068;4.542;2022-12-18T03:22:37;22.7;;;15.7;;
76548;SDS011;65391;52.068;4.542;2022-12-18T03:25:04;22.7;;;15.7;;
76548;SDS011;65391;52.068;4.542;2022-12-18T03:27:28;22.7;;;15.7;;
76548;SDS011;65391;52.068;4.542;2022-12-18T03:29:53;31;;;16.6;;
76548;SDS011;65391;52.068;4.542;2022-12-18T03:32:20;31;;;16.6;;
76548;SDS011;65391;52.068;4.542;2022-12-18T03:34:42;31;;;16.6;;
76548;SDS011;65391;52.068;4.542;2022-12-18T03:37:07;31;;;16.6;;
76548;SDS011;65391;52.068;4.542;2022-12-18T03:39:33;31;;;16.6;;
76548;SDS011;65391;52.068;4.542;2022-12-18T03:42:00;26.5;;;15;;
76548;SDS011;65391;52.068;4.542;2022-12-18T03:44:26;26.5;;;15;;
76548;SDS011;65391;52.068;4.542;2022-12-18T03:46:51;26.5;;;15;;
76548;SDS011;65391;52.068;4.542;2022-12-18T03:49:14;26.5;;;15;;
76548;SDS011;65391;52.068;4.542;2022-12-18T03:51:39;36.9;;;17.1;;
76548;SDS011;65391;52.068;4.542;2022-12-18T03:54:04;36.9;;;17.1;;
76548;SDS011;65391;52.068;4.542;2022-12-18T03:56:29;36.9;;;17.1;;
76548;SDS011;65391;52.068;4.542;2022-12-18T03:58:52;36.9;;;17.1;;
76548;SDS011;65391;52.068;4.542;2022-12-18T04:01:17;25.1;;;15.1;;
76548;SDS011;65391;52.068;4.542;2022-12-18T04:03:42;25.1;;;15.1;;
76548;SDS011;65391;52.068;4.542;2022-12-18T04:06:07;25.1;;;15.1;;
76548;SDS011;65391;52.068;4.542;2022-12-18T04:08:32;25.1;;;15.1;;
76548;SDS011;65391;52.068;4.542;2022-12-18T04:10:57;20.8;;;15.5;;
76548;SDS011;65391;52.068;4.542;2022-12-18T04:13:23;20.8;;;15.5;;
76548;SDS011;65391;52.068;4.542;2022-12-18T04:15:47;20.8;;;15.5;;
76548;SDS011;65391;52.068;4.542;2022-12-18T04:18:12;20.8;;;15.5;;
76548;SDS011;65391;52.068;4.542;2022-12-18T04:20:37;19.4;;;15.3;;
76548;SDS011;65391;52.068;4.542;2022-12-18T04:23:02;19.4;;;15.3;;
76548;SDS011;65391;52.068;4.542;2022-12-18T04:25:27;19.4;;;15.3;;
76548;SDS011;65391;52.068;4.542;2022-12-18T04:27:52;19.4;;;15.3;;
76548;SDS011;65391;52.068;4.542;2022-12-18T04:30:17;20.1;;;16;;
76548;SDS011;65391;52.068;4.542;2022-12-18T04:32:42;20.1;;;16;;
76548;SDS011;65391;52.068;4.542;2022-12-18T04:35:07;20.1;;;16;;
76548;SDS011;65391;52.068;4.542;2022-12-18T04:37:32;20.1;;;16;;
76548;SDS011;65391;52.068;4.542;2022-12-18T04:39:57;22.7;;;14.3;;
76548;SDS011;65391;52.068;4.542;2022-12-18T04:42:22;22.7;;;14.3;;
76548;SDS011;65391;52.068;4.542;2022-12-18T04:44:47;22.7;;;14.3;;
76548;SDS011;65391;52.068;4.542;2022-12-18T04:47:12;22.7;;;14.3;;
76548;SDS011;65391;52.068;4.542;2022-12-18T04:49:37;22.7;;;14.3;;
76548;SDS011;65391;52.068;4.542;2022-12-18T04:52:02;17.8;;;15;;
76548;SDS011;65391;52.068;4.542;2022-12-18T04:54:27;17.8;;;15;;
76548;SDS011;65391;52.068;4.542;2022-12-18T04:56:52;17.8;;;15;;
76548;SDS011;65391;52.068;4.542;2022-12-18T04:59:17;17.8;;;15;;
76548;SDS011;65391;52.068;4.542;2022-12-18T05:01:42;23.4;;;14.9;;
76548;SDS011;65391;52.068;4.542;2022-12-18T05:04:07;23.4;;;14.9;;
76548;SDS011;65391;52.068;4.542;2022-12-18T05:06:32;23.4;;;14.9;;
76548;SDS011;65391;52.068;4.542;2022-12-18T05:08:57;23.4;;;14.9;;
76548;SDS011;65391;52.068;4.542;2022-12-18T05:11:22;19.6;;;14.9;;
76548;SDS011;65391;52.068;4.542;2022-12-18T05:13:47;19.6;;;14.9;;
76548;SDS011;65391;52.068;4.542;2022-12-18T05:16:13;19.6;;;14.9;;
76548;SDS011;65391;52.068;4.542;2022-12-18T05:18:37;18.6;;;16;;
76548;SDS011;65391;52.068;4.542;2022-12-18T05:21:03;18.6;;;16;;
76548;SDS011;65391;52.068;4.542;2022-12-18T05:23:27;18.6;;;16;;
76548;SDS011;65391;52.068;4.542;2022-12-18T05:25:53;18.6;;;16;;
76548;SDS011;65391;52.068;4.542;2022-12-18T05:28:17;18.6;;;16;;
76548;SDS011;65391;52.068;4.542;2022-12-18T05:30:44;24.3;;;16.5;;
76548;SDS011;65391;52.068;4.542;2022-12-18T05:33:07;24.3;;;16.5;;
76548;SDS011;65391;52.068;4.542;2022-12-18T05:35:32;24.3;;;16.5;;
76548;SDS011;65391;52.068;4.542;2022-12-18T05:37:57;24.3;;;16.5;;
76548;SDS011;65391;52.068;4.542;2022-12-18T05:40:22;35.4;;;17.9;;
76548;SDS011;65391;52.068;4.542;2022-12-18T05:42:47;35.4;;;17.9;;
76548;SDS011;65391;52.068;4.542;2022-12-18T05:45:12;35.4;;;17.9;;
76548;SDS011;65391;52.068;4.542;2022-12-18T05:47:37;35.4;;;17.9;;
76548;SDS011;65391;52.068;4.542;2022-12-18T05:50:03;26.5;;;18.1;;
76548;SDS011;65391;52.068;4.542;2022-12-18T05:52:27;26.5;;;18.1;;
76548;SDS011;65391;52.068;4.542;2022-12-18T05:54:53;26.5;;;18.1;;
76548;SDS011;65391;52.068;4.542;2022-12-18T05:57:18;26.5;;;18.1;;
76548;SDS011;65391;52.068;4.542;2022-12-18T05:59:42;22.3;;;16.9;;
76548;SDS011;65391;52.068;4.542;2022-12-18T06:02:07;22.3;;;16.9;;
76548;SDS011;65391;52.068;4.542;2022-12-18T06:04:32;22.3;;;16.9;;
76548;SDS011;65391;52.068;4.542;2022-12-18T06:06:58;22.3;;;16.9;;
76548;SDS011;65391;52.068;4.542;2022-12-18T06:09:23;18.8;;;16.4;;
76548;SDS011;65391;52.068;4.542;2022-12-18T06:11:47;18.8;;;16.4;;
76548;SDS011;65391;52.068;4.542;2022-12-18T06:14:12;18.8;;;16.4;;
76548;SDS011;65391;52.068;4.542;2022-12-18T06:16:37;18.8;;;16.4;;
76548;SDS011;65391;52.068;4.542;2022-12-18T06:19:03;18.2;;;15.7;;
76548;SDS011;65391;52.068;4.542;2022-12-18T06:21:27;18.2;;;15.7;;
76548;SDS011;65391;52.068;4.542;2022-12-18T06:23:52;18.2;;;15.7;;
76548;SDS011;65391;52.068;4.542;2022-12-18T06:26:18;18.2;;;15.7;;
76548;SDS011;65391;52.068;4.542;2022-12-18T06:28:42;23.3;;;15.1;;
76548;SDS011;65391;52.068;4.542;2022-12-18T06:31:08;23.3;;;15.1;;
76548;SDS011;65391;52.068;4.542;2022-12-18T06:33:33;23.3;;;15.1;;
76548;SDS011;65391;52.068;4.542;2022-12-18T06:35:59;23.3;;;15.1;;
76548;SDS011;65391;52.068;4.542;2022-12-18T06:38:22;20.6;;;16.7;;
76548;SDS011;65391;52.068;4.542;2022-12-18T06:40:48;20.6;;;16.7;;
76548;SDS011;65391;52.068;4.542;2022-12-18T06:43:12;20.6;;;16.7;;
76548;SDS011;65391;52.068;4.542;2022-12-18T06:45:38;20.6;;;16.7;;
76548;SDS011;65391;52.068;4.542;2022-12-18T06:48:02;20.6;;;16.7;;
76548;SDS011;65391;52.068;4.542;2022-12-18T06:50:28;20.2;;;15.8;;
76548;SDS011;65391;52.068;4.542;2022-12-18T06:52:52;20.2;;;15.8;;
76548;SDS011;65391;52.068;4.542;2022-12-18T06:55:18;20.2;;;15.8;;
76548;SDS011;65391;52.068;4.542;2022-12-18T06:57:43;20.2;;;15.8;;
76548;SDS011;65391;52.068;4.542;2022-12-18T07:00:08;22.2;;;13.5;;
76548;SDS011;65391;52.068;4.542;2022-12-18T07:02:33;22.2;;;13.5;;
76548;SDS011;65391;52.068;4.542;2022-12-18T07:04:58;22.2;;;13.5;;
76548;SDS011;65391;52.068;4.542;2022-12-18T07:07:23;22.2;;;13.5;;
76548;SDS011;65391;52.068;4.542;2022-12-18T07:09:49;22.9;;;14.4;;
76548;SDS011;65391;52.068;4.542;2022-12-18T07:12:13;22.9;;;14.4;;
76548;SDS011;65391;52.068;4.542;2022-12-18T07:14:38;22.9;;;14.4;;
76548;SDS011;65391;52.068;4.542;2022-12-18T07:17:03;22.9;;;14.4;;
76548;SDS011;65391;52.068;4.542;2022-12-18T07:19:28;22.5;;;13.4;;
76548;SDS011;65391;52.068;4.542;2022-12-18T07:21:53;22.5;;;13.4;;
76548;SDS011;65391;52.068;4.542;2022-12-18T07:24:18;22.5;;;13.4;;
76548;SDS011;65391;52.068;4.542;2022-12-18T07:26:45;22.5;;;13.4;;
76548;SDS011;65391;52.068;4.542;2022-12-18T07:29:08;21.3;;;12.4;;
76548;SDS011;65391;52.068;4.542;2022-12-18T07:31:33;21.3;;;12.4;;
76548;SDS011;65391;52.068;4.542;2022-12-18T07:33:58;21.3;;;12.4;;
76548;SDS011;65391;52.068;4.542;2022-12-18T07:36:23;21.3;;;12.4;;
76548;SDS011;65391;52.068;4.542;2022-12-18T07:38:48;21.4;;;11.9;;
76548;SDS011;65391;52.068;4.542;2022-12-18T07:41:13;21.4;;;11.9;;
76548;SDS011;65391;52.068;4.542;2022-12-18T07:43:38;21.4;;;11.9;;
76548;SDS011;65391;52.068;4.542;2022-12-18T07:46:03;21.4;;;11.9;;
76548;SDS011;65391;52.068;4.542;2022-12-18T07:48:28;18.9;;;9.3;;
76548;SDS011;65391;52.068;4.542;2022-12-18T07:50:53;18.9;;;9.3;;
76548;SDS011;65391;52.068;4.542;2022-12-18T07:53:18;18.9;;;9.3;;
76548;SDS011;65391;52.068;4.542;2022-12-18T07:55:43;18.9;;;9.3;;
76548;SDS011;65391;52.068;4.542;2022-12-18T07:58:08;18.9;;;9.3;;
76548;SDS011;65391;52.068;4.542;2022-12-18T08:00:33;20.8;;;11;;
76548;SDS011;65391;52.068;4.542;2022-12-18T08:02:58;20.8;;;11;;
76548;SDS011;65391;52.068;4.542;2022-12-18T08:05:23;20.8;;;11;;
76548;SDS011;65391;52.068;4.542;2022-12-18T08:07:48;20.8;;;11;;
76548;SDS011;65391;52.068;4.542;2022-12-18T08:10:13;22.2;;;12.7;;
76548;SDS011;65391;52.068;4.542;2022-12-18T08:12:38;22.2;;;12.7;;
76548;SDS011;65391;52.068;4.542;2022-12-18T08:15:03;22.2;;;12.7;;
76548;SDS011;65391;52.068;4.542;2022-12-18T08:17:28;22.2;;;12.7;;
76548;SDS011;65391;52.068;4.542;2022-12-18T08:19:53;21.8;;;12.1;;
76548;SDS011;65391;52.068;4.542;2022-12-18T08:22:18;21.8;;;12.1;;
76548;SDS011;65391;52.068;4.542;2022-12-18T08:24:43;21.8;;;12.1;;
76548;SDS011;65391;52.068;4.542;2022-12-18T08:27:08;21.8;;;12.1;;
76548;SDS011;65391;52.068;4.542;2022-12-18T08:29:33;19.4;;;9.6;;
76548;SDS011;65391;52.068;4.542;2022-12-18T08:31:58;19.4;;;9.6;;
76548;SDS011;65391;52.068;4.542;2022-12-18T08:34:23;19.4;;;9.6;;
76548;SDS011;65391;52.068;4.542;2022-12-18T08:36:48;19.4;;;9.6;;
76548;SDS011;65391;52.068;4.542;2022-12-18T08:39:13;22;;;12.6;;
76548;SDS011;65391;52.068;4.542;2022-12-18T08:41:38;22;;;12.6;;
76548;SDS011;65391;52.068;4.542;2022-12-18T08:44:03;22;;;12.6;;
76548;SDS011;65391;52.068;4.542;2022-12-18T08:46:33;22;;;12.6;;
76548;SDS011;65391;52.068;4.542;2022-12-18T08:48:53;22.3;;;12.6;;
76548;SDS011;65391;52.068;4.542;2022-12-18T08:51:18;22.3;;;12.6;;
76548;SDS011;65391;52.068;4.542;2022-12-18T08:53:43;22.3;;;12.6;;
76548;SDS011;65391;52.068;4.542;2022-12-18T08:56:08;22.3;;;12.6;;
76548;SDS011;65391;52.068;4.542;2022-12-18T08:58:33;21.6;;;11.8;;
76548;SDS011;65391;52.068;4.542;2022-12-18T09:00:59;21.6;;;11.8;;
76548;SDS011;65391;52.068;4.542;2022-12-18T09:03:23;21.6;;;11.8;;
76548;SDS011;65391;52.068;4.542;2022-12-18T09:05:48;21.6;;;11.8;;
76548;SDS011;65391;52.068;4.542;2022-12-18T09:08:13;21.6;;;11.8;;
76548;SDS011;65391;52.068;4.542;2022-12-18T09:10:41;19.7;;;10.1;;
76548;SDS011;65391;52.068;4.542;2022-12-18T09:13:03;19.7;;;10.1;;
76548;SDS011;65391;52.068;4.542;2022-12-18T09:15:28;19.7;;;10.1;;
76548;SDS011;65391;52.068;4.542;2022-12-18T09:17:53;19.7;;;10.1;;
76548;SDS011;65391;52.068;4.542;2022-12-18T09:20:18;21.6;;;11.7;;
76548;SDS011;65391;52.068;4.542;2022-12-18T09:22:43;21.6;;;11.7;;
76548;SDS011;65391;52.068;4.542;2022-12-18T09:25:08;21.6;;;11.7;;
76548;SDS011;65391;52.068;4.542;2022-12-18T09:27:33;21.6;;;11.7;;
76548;SDS011;65391;52.068;4.542;2022-12-18T09:29:58;22.4;;;12.4;;
76548;SDS011;65391;52.068;4.542;2022-12-18T09:32:23;22.4;;;12.4;;
76548;SDS011;65391;52.068;4.542;2022-12-18T09:34:48;22.4;;;12.4;;
76548;SDS011;65391;52.068;4.542;2022-12-18T09:37:13;22.4;;;12.4;;
76548;SDS011;65391;52.068;4.542;2022-12-18T09:39:38;21.5;;;11.4;;
76548;SDS011;65391;52.068;4.542;2022-12-18T09:42:03;21.5;;;11.4;;
76548;SDS011;65391;52.068;4.542;2022-12-18T09:44:30;21.5;;;11.4;;
76548;SDS011;65391;52.068;4.542;2022-12-18T09:46:57;21.5;;;11.4;;
76548;SDS011;65391;52.068;4.542;2022-12-18T09:49:19;22.4;;;12.2;;
76548;SDS011;65391;52.068;4.542;2022-12-18T09:51:45;22.4;;;12.2;;
76548;SDS011;65391;52.068;4.542;2022-12-18T09:54:12;22.4;;;12.2;;
76548;SDS011;65391;52.068;4.542;2022-12-18T09:56:35;22.4;;;12.2;;
76548;SDS011;65391;52.068;4.542;2022-12-18T09:58:59;22;;;11.7;;
76548;SDS011;65391;52.068;4.542;2022-12-18T10:01:23;22;;;11.7;;
76548;SDS011;65391;52.068;4.542;2022-12-18T10:03:49;22;;;11.7;;
76548;SDS011;65391;52.068;4.542;2022-12-18T10:06:15;22;;;11.7;;
76548;SDS011;65391;52.068;4.542;2022-12-18T10:08:40;21.9;;;11.6;;
76548;SDS011;65391;52.068;4.542;2022-12-18T10:11:15;21.9;;;11.6;;
76548;SDS011;65391;52.068;4.542;2022-12-18T10:13:31;21.9;;;11.6;;
76548;SDS011;65391;52.068;4.542;2022-12-18T10:16:00;21.9;;;11.6;;
76548;SDS011;65391;52.068;4.542;2022-12-18T10:18:23;21.9;;;11.6;;
76548;SDS011;65391;52.068;4.542;2022-12-18T10:20:44;22.4;;;12.1;;
76548;SDS011;65391;52.068;4.542;2022-12-18T10:23:12;22.4;;;12.1;;
76548;SDS011;65391;52.068;4.542;2022-12-18T10:25:34;22.4;;;12.1;;
76548;SDS011;65391;52.068;4.542;2022-12-18T10:28:00;22.4;;;12.1;;
76548;SDS011;65391;52.068;4.542;2022-12-18T10:30:24;21.7;;;11.2;;
76548;SDS011;65391;52.068;4.542;2022-12-18T10:32:48;21.7;;;11.2;;
76548;SDS011;65391;52.068;4.542;2022-12-18T10:35:17;21.7;;;11.2;;
76548;SDS011;65391;52.068;4.542;2022-12-18T10:37:38;21.7;;;11.2;;
76548;SDS011;65391;52.068;4.542;2022-12-18T10:40:07;22.8;;;12.3;;
76548;SDS011;65391;52.068;4.542;2022-12-18T10:42:28;22.8;;;12.3;;
76548;SDS011;65391;52.068;4.542;2022-12-18T10:44:57;22.8;;;12.3;;
76548;SDS011;65391;52.068;4.542;2022-12-18T10:47:18;22.8;;;12.3;;
76548;SDS011;65391;52.068;4.542;2022-12-18T10:49:52;21.4;;;10.7;;
76548;SDS011;65391;52.068;4.542;2022-12-18T10:52:14;21.4;;;10.7;;
76548;SDS011;65391;52.068;4.542;2022-12-18T10:54:33;21.4;;;10.7;;
76548;SDS011;65391;52.068;4.542;2022-12-18T10:57:14;21.4;;;10.7;;
76548;SDS011;65391;52.068;4.542;2022-12-18T10:59:23;22;;;11.4;;
76548;SDS011;65391;52.068;4.542;2022-12-18T11:01:50;22;;;11.4;;
76548;SDS011;65391;52.068;4.542;2022-12-18T11:04:16;22;;;11.4;;
76548;SDS011;65391;52.068;4.542;2022-12-18T11:06:52;22;;;11.4;;
76548;SDS011;65391;52.068;4.542;2022-12-18T11:09:04;22.3;;;11.8;;
76548;SDS011;65391;52.068;4.542;2022-12-18T11:11:28;22.3;;;11.8;;
76548;SDS011;65391;52.068;4.542;2022-12-18T11:13:58;22.3;;;11.8;;
76548;SDS011;65391;52.068;4.542;2022-12-18T11:16:18;22.3;;;11.8;;
76548;SDS011;65391;52.068;4.542;2022-12-18T11:18:43;22.6;;;11.9;;
76548;SDS011;65391;52.068;4.542;2022-12-18T11:21:09;22.6;;;11.9;;
76548;SDS011;65391;52.068;4.542;2022-12-18T11:23:33;22.6;;;11.9;;
76548;SDS011;65391;52.068;4.542;2022-12-18T11:25:59;22.6;;;11.9;;
76548;SDS011;65391;52.068;4.542;2022-12-18T11:28:26;22.6;;;11.9;;
76548;SDS011;65391;52.068;4.542;2022-12-18T11:30:48;22.8;;;12;;
76548;SDS011;65391;52.068;4.542;2022-12-18T11:33:15;22.8;;;12;;
76548;SDS011;65391;52.068;4.542;2022-12-18T11:35:42;22.8;;;12;;
76548;SDS011;65391;52.068;4.542;2022-12-18T11:38:06;22.8;;;12;;
76548;SDS011;65391;52.068;4.542;2022-12-18T11:40:31;21.3;;;10.9;;
76548;SDS011;65391;52.068;4.542;2022-12-18T11:42:55;21.3;;;10.9;;
76548;SDS011;65391;52.068;4.542;2022-12-18T11:45:25;21.3;;;10.9;;
76548;SDS011;65391;52.068;4.542;2022-12-18T11:47:44;21.3;;;10.9;;
76548;SDS011;65391;52.068;4.542;2022-12-18T11:50:11;22.1;;;11.4;;
76548;SDS011;65391;52.068;4.542;2022-12-18T11:52:35;22.1;;;11.4;;
76548;SDS011;65391;52.068;4.542;2022-12-18T11:55:00;22.1;;;11.4;;
76548;SDS011;65391;52.068;4.542;2022-12-18T11:57:30;22.1;;;11.4;;
76548;SDS011;65391;52.068;4.542;2022-12-18T11:59:51;19.8;;;10.1;;
76548;SDS011;65391;52.068;4.542;2022-12-18T12:02:21;19.8;;;10.1;;
76548;SDS011;65391;52.068;4.542;2022-12-18T12:04:45;19.8;;;10.1;;
76548;SDS011;65391;52.068;4.542;2022-12-18T12:07:07;19.8;;;10.1;;
76548;SDS011;65391;52.068;4.542;2022-12-18T12:09:31;23.7;;;12.7;;
76548;SDS011;65391;52.068;4.542;2022-12-18T12:12:01;23.7;;;12.7;;
76548;SDS011;65391;52.068;4.542;2022-12-18T12:14:27;23.7;;;12.7;;
76548;SDS011;65391;52.068;4.542;2022-12-18T12:16:46;23.7;;;12.7;;
76548;SDS011;65391;52.068;4.542;2022-12-18T12:19:18;24;;;13;;
76548;SDS011;65391;52.068;4.542;2022-12-18T12:21:36;24;;;13;;
76548;SDS011;65391;52.068;4.542;2022-12-18T12:24:01;24;;;13;;
76548;SDS011;65391;52.068;4.542;2022-12-18T12:26:27;24;;;13;;
76548;SDS011;65391;52.068;4.542;2022-12-18T12:28:57;24.3;;;13.7;;
76548;SDS011;65391;52.068;4.542;2022-12-18T12:31:16;24.3;;;13.7;;
76548;SDS011;65391;52.068;4.542;2022-12-18T12:33:40;24.3;;;13.7;;
76548;SDS011;65391;52.068;4.542;2022-12-18T12:36:07;24.3;;;13.7;;
76548;SDS011;65391;52.068;4.542;2022-12-18T12:38:30;24.3;;;13.7;;
76548;SDS011;65391;52.068;4.542;2022-12-18T12:40:54;24;;;13.1;;
76548;SDS011;65391;52.068;4.542;2022-12-18T12:43:22;24;;;13.1;;
76548;SDS011;65391;52.068;4.542;2022-12-18T12:45:45;24;;;13.1;;
76548;SDS011;65391;52.068;4.542;2022-12-18T12:48:13;24;;;13.1;;
76548;SDS011;65391;52.068;4.542;2022-12-18T12:50:33;24.2;;;13.2;;
76548;SDS011;65391;52.068;4.542;2022-12-18T12:52:58;24.2;;;13.2;;
76548;SDS011;65391;52.068;4.542;2022-12-18T12:55:24;24.2;;;13.2;;
76548;SDS011;65391;52.068;4.542;2022-12-18T12:57:54;24.2;;;13.2;;
76548;SDS011;65391;52.068;4.542;2022-12-18T13:00:14;22.6;;;11.8;;
76548;SDS011;65391;52.068;4.542;2022-12-18T13:02:41;22.6;;;11.8;;
76548;SDS011;65391;52.068;4.542;2022-12-18T13:05:06;22.6;;;11.8;;
76548;SDS011;65391;52.068;4.542;2022-12-18T13:07:30;22.6;;;11.8;;
76548;SDS011;65391;52.068;4.542;2022-12-18T13:10:34;22.5;;;11.4;;
76548;SDS011;65391;52.068;4.542;2022-12-18T13:12:18;22.5;;;11.4;;
76548;SDS011;65391;52.068;4.542;2022-12-18T13:14:43;22.5;;;11.4;;
76548;SDS011;65391;52.068;4.542;2022-12-18T13:17:21;22.5;;;11.4;;
76548;SDS011;65391;52.068;4.542;2022-12-18T13:19:34;23.7;;;12.6;;
76548;SDS011;65391;52.068;4.542;2022-12-18T13:21:58;23.7;;;12.6;;
76548;SDS011;65391;52.068;4.542;2022-12-18T13:24:25;23.7;;;12.6;;
76548;SDS011;65391;52.068;4.542;2022-12-18T13:26:48;23.7;;;12.6;;
76548;SDS011;65391;52.068;4.542;2022-12-18T13:29:15;23.3;;;12.2;;
76548;SDS011;65391;52.068;4.542;2022-12-18T13:31:58;23.3;;;12.2;;
76548;SDS011;65391;52.068;4.542;2022-12-18T13:34:12;23.3;;;12.2;;
76548;SDS011;65391;52.068;4.542;2022-12-18T13:36:31;23.3;;;12.2;;
76548;SDS011;65391;52.068;4.542;2022-12-18T13:39:10;23.3;;;12.3;;
76548;SDS011;65391;52.068;4.542;2022-12-18T13:41:23;23.3;;;12.3;;
76548;SDS011;65391;52.068;4.542;2022-12-18T13:43:44;23.3;;;12.3;;
76548;SDS011;65391;52.068;4.542;2022-12-18T13:46:25;23.3;;;12.3;;
76548;SDS011;65391;52.068;4.542;2022-12-18T13:48:35;23.3;;;12.3;;
76548;SDS011;65391;52.068;4.542;2022-12-18T13:51:00;21.6;;;10.4;;
76548;SDS011;65391;52.068;4.542;2022-12-18T13:53:26;21.6;;;10.4;;
76548;SDS011;65391;52.068;4.542;2022-12-18T13:55:49;21.6;;;10.4;;
76548;SDS011;65391;52.068;4.542;2022-12-18T13:58:13;21.6;;;10.4;;
76548;SDS011;65391;52.068;4.542;2022-12-18T14:00:41;24.4;;;13.2;;
76548;SDS011;65391;52.068;4.542;2022-12-18T14:03:16;24.4;;;13.2;;
76548;SDS011;65391;52.068;4.542;2022-12-18T14:05:30;24.4;;;13.2;;
76548;SDS011;65391;52.068;4.542;2022-12-18T14:07:53;24.4;;;13.2;;
76548;SDS011;65391;52.068;4.542;2022-12-18T14:10:18;22.6;;;11.6;;
76548;SDS011;65391;52.068;4.542;2022-12-18T14:12:44;22.6;;;11.6;;
76548;SDS011;65391;52.068;4.542;2022-12-18T14:15:14;22.6;;;11.6;;
76548;SDS011;65391;52.068;4.542;2022-12-18T14:17:33;22.6;;;11.6;;
76548;SDS011;65391;52.068;4.542;2022-12-18T14:19:58;22.4;;;11.1;;
76548;SDS011;65391;52.068;4.542;2022-12-18T14:22:25;22.4;;;11.1;;
76548;SDS011;65391;52.068;4.542;2022-12-18T14:25:04;22.4;;;11.1;;
76548;SDS011;65391;52.068;4.542;2022-12-18T14:27:20;22.4;;;11.1;;
76548;SDS011;65391;52.068;4.542;2022-12-18T14:29:38;23.7;;;12.5;;
76548;SDS011;65391;52.068;4.542;2022-12-18T14:32:09;23.7;;;12.5;;
76548;SDS011;65391;52.068;4.542;2022-12-18T14:34:28;23.7;;;12.5;;
76548;SDS011;65391;52.068;4.542;2022-12-18T14:36:53;23.7;;;12.5;;
76548;SDS011;65391;52.068;4.542;2022-12-18T14:39:18;23;;;11.7;;